createdAt,value
2019-03-04T00:01:43.682Z,98094.44
2019-03-04T00:04:14.126Z,98098.23
2019-03-04T00:06:44.553Z,98081.25
2019-03-04T00:09:15.032Z,98082.30
2019-03-04T00:11:45.894Z,98072.43
2019-03-04T00:14:16.701Z,98062.06
2019-03-04T00:16:47.496Z,98058.66
2019-03-04T00:19:17.943Z,98058.55
2019-03-04T00:21:48.374Z,98054.64
2019-03-04T00:24:18.901Z,98045.40
2019-03-04T00:26:49.647Z,98045.18
2019-03-04T00:29:20.866Z,98044.86
2019-03-04T00:31:52.066Z,98040.26
2019-03-04T00:34:22.740Z,98037.05
2019-03-04T00:36:53.202Z,98030.58
2019-03-04T00:39:23.684Z,98045.80
2019-03-04T00:41:54.127Z,98045.97
2019-03-04T00:44:25.034Z,98043.61
2019-03-04T00:46:55.475Z,98066.83
2019-03-04T00:49:25.901Z,98060.05
2019-03-04T00:51:56.364Z,98068.65
2019-03-04T00:54:26.791Z,98059.94
2019-03-04T00:56:57.212Z,98065.19
2019-03-04T00:59:27.658Z,98078.11
2019-03-04T01:01:58.223Z,98069.51
2019-03-04T01:04:28.663Z,98058.81
2019-03-04T01:06:59.411Z,98044.23
2019-03-04T01:09:29.846Z,98048.75
2019-03-04T01:12:00.348Z,98038.28
2019-03-04T01:14:30.778Z,98031.49
2019-03-04T01:17:01.640Z,98022.90
2019-03-04T01:19:32.068Z,98022.69
2019-03-04T01:22:02.794Z,98039.23
2019-03-04T01:24:33.248Z,98017.55
2019-03-04T01:27:03.723Z,98006.98
2019-03-04T01:29:34.143Z,98007.69
2019-03-04T01:32:04.937Z,97986.53
2019-03-04T01:34:35.385Z,97990.05
2019-03-04T01:37:05.819Z,97979.36
2019-03-04T01:39:36.293Z,97955.30
2019-03-04T01:42:06.724Z,97943.91
2019-03-04T01:44:37.447Z,97955.72
2019-03-04T01:47:07.908Z,97945.77
2019-03-04T01:49:38.337Z,97930.45
2019-03-04T01:52:08.786Z,97917.73
2019-03-04T01:54:39.264Z,97893.17
2019-03-04T01:57:10.060Z,97894.71
2019-03-04T01:59:40.487Z,97895.84
2019-03-04T02:02:10.976Z,97882.39
2019-03-04T02:04:41.971Z,97866.14
2019-03-04T02:07:12.865Z,97884.45
2019-03-04T02:09:43.325Z,97876.23
2019-03-04T02:12:13.818Z,97842.85
2019-03-04T02:14:44.267Z,97864.20
2019-03-04T02:17:15.030Z,97849.00
2019-03-04T02:19:45.506Z,97847.56
2019-03-04T02:22:15.928Z,97842.84
2019-03-04T02:24:46.357Z,97836.26
2019-03-04T02:27:16.812Z,97830.38
2019-03-04T02:29:47.241Z,97825.67
2019-03-04T02:32:17.745Z,97812.33
2019-03-04T02:34:48.577Z,97807.28
2019-03-04T02:37:19.029Z,97796.77
2019-03-04T02:39:49.468Z,97787.94
2019-03-04T02:42:19.900Z,97778.41
2019-03-04T02:44:50.371Z,97765.12
2019-03-04T02:47:21.135Z,97774.78
2019-03-04T02:49:51.667Z,97765.43
2019-03-04T02:52:22.267Z,97761.83
2019-03-04T02:54:52.699Z,97751.08
2019-03-04T02:57:23.122Z,97752.00
2019-03-04T02:59:53.970Z,97747.34
2019-03-04T03:02:25.056Z,97743.62
2019-03-04T03:04:55.548Z,97756.76
2019-03-04T03:07:25.972Z,97741.23
2019-03-04T03:09:56.401Z,97746.02
2019-03-04T03:12:26.912Z,97722.28
2019-03-04T03:14:59.504Z,97709.85
2019-03-04T03:17:30.295Z,97703.85
2019-03-04T03:20:01.105Z,97699.13
2019-03-04T03:22:31.973Z,97681.67
2019-03-04T03:25:02.618Z,97652.87
2019-03-04T03:27:33.040Z,97669.87
2019-03-04T03:30:03.499Z,97663.69
2019-03-04T03:32:33.979Z,97660.03
2019-03-04T03:35:08.135Z,97668.48
2019-03-04T03:37:36.642Z,97657.76
2019-03-04T03:40:09.384Z,97656.25
2019-03-04T03:42:39.821Z,97650.81
2019-03-04T03:45:11.150Z,97611.84
2019-03-04T03:47:41.585Z,97648.63
2019-03-04T03:50:12.566Z,97644.04
2019-03-04T03:52:43.011Z,97632.82
2019-03-04T03:55:13.702Z,97643.48
2019-03-04T03:57:44.194Z,97621.72
2019-03-04T04:00:17.154Z,97622.30
2019-03-04T04:02:48.005Z,97648.94
2019-03-04T04:05:18.420Z,97641.06
2019-03-04T04:07:48.972Z,97615.34
2019-03-04T04:10:19.798Z,97604.34
2019-03-04T04:12:50.302Z,97601.33
2019-03-04T04:15:21.436Z,97596.85
2019-03-04T04:17:52.219Z,97590.06
2019-03-04T04:20:22.760Z,97593.91
2019-03-04T04:22:53.508Z,97571.02
2019-03-04T04:25:23.932Z,97566.11
2019-03-04T04:27:54.780Z,97566.92
2019-03-04T04:30:26.249Z,97572.36
2019-03-04T04:32:57.087Z,97565.51
2019-03-04T04:35:27.892Z,97573.24
2019-03-04T04:37:58.634Z,97575.83
2019-03-04T04:40:29.326Z,97583.13
2019-03-04T04:43:00.520Z,97571.19
2019-03-04T04:45:31.570Z,97569.69
2019-03-04T04:48:02.060Z,97551.05
2019-03-04T04:50:32.928Z,97553.66
2019-03-04T04:53:03.408Z,97524.24
2019-03-04T04:55:33.840Z,97517.95
2019-03-04T04:58:04.267Z,97490.23
2019-03-04T05:00:34.745Z,97478.66
2019-03-04T05:03:05.699Z,97475.23
2019-03-04T05:05:36.131Z,97466.40
2019-03-04T05:08:06.967Z,97458.31
2019-03-04T05:10:37.395Z,97447.92
2019-03-04T05:13:07.820Z,97452.23
2019-03-04T05:15:38.298Z,97446.13
2019-03-04T05:18:08.753Z,97437.00
2019-03-04T05:20:39.181Z,97406.34
2019-03-04T05:23:09.656Z,97414.89
2019-03-04T05:25:40.084Z,97399.66
2019-03-04T05:28:10.516Z,97383.47
2019-03-04T05:30:41.063Z,97353.92
2019-03-04T05:33:11.562Z,97354.22
2019-03-04T05:35:42.265Z,97370.27
2019-03-04T05:38:12.716Z,97374.13
2019-03-04T05:40:43.155Z,97352.66
2019-03-04T05:43:13.586Z,97339.99
2019-03-04T05:45:44.128Z,97320.44
2019-03-04T05:48:14.559Z,97321.70
2019-03-04T05:50:45.001Z,97311.63
2019-03-04T05:53:17.619Z,97298.62
2019-03-04T05:55:48.068Z,97266.01
2019-03-04T05:58:18.841Z,97286.24
2019-03-04T06:00:49.394Z,97296.96
2019-03-04T06:03:19.886Z,97282.56
2019-03-04T06:05:50.334Z,97288.98
2019-03-04T06:08:21.544Z,97286.11
2019-03-04T06:10:51.977Z,97307.52
2019-03-04T06:13:22.462Z,97291.86
2019-03-04T06:15:53.897Z,97276.75
2019-03-04T06:18:24.352Z,97270.37
2019-03-04T06:20:54.833Z,97264.19
2019-03-04T06:23:25.263Z,97270.30
2019-03-04T06:25:55.813Z,97256.40
2019-03-04T06:28:26.244Z,97246.30
2019-03-04T06:30:56.968Z,97252.08
2019-03-04T06:33:27.766Z,97237.36
2019-03-04T06:35:58.297Z,97256.79
2019-03-04T06:38:29.089Z,97254.81
2019-03-04T06:40:59.558Z,97246.02
2019-03-04T06:43:30.104Z,97248.46
2019-03-04T06:46:00.535Z,97229.44
2019-03-04T06:48:30.996Z,97210.66
2019-03-04T06:51:01.896Z,97209.39
2019-03-04T06:53:53.661Z,97194.61
2019-03-04T06:56:31.765Z,97200.79
2019-03-04T06:59:13.205Z,97206.02
2019-03-04T07:01:47.865Z,97183.52
2019-03-04T07:04:26.853Z,97193.52
2019-03-04T07:06:57.327Z,97204.28
2019-03-04T07:09:27.954Z,97188.94
2019-03-04T07:11:58.384Z,97198.36
2019-03-04T07:14:29.616Z,97195.39
2019-03-04T07:17:00.128Z,97199.28
2019-03-04T07:19:36.324Z,97206.02
2019-03-04T07:22:07.024Z,97213.64
2019-03-04T07:24:37.804Z,97196.43
2019-03-04T07:27:09.174Z,97202.88
2019-03-04T07:29:39.604Z,97186.27
2019-03-04T07:32:10.440Z,97176.84
2019-03-04T07:34:40.864Z,97174.61
2019-03-04T07:37:11.299Z,97172.52
2019-03-04T07:39:41.785Z,97166.02
2019-03-04T07:42:12.788Z,97155.60
2019-03-04T07:44:43.208Z,97149.34
2019-03-04T07:47:13.790Z,97133.13
2019-03-04T07:49:49.449Z,97124.95
2019-03-04T07:52:19.903Z,97131.58
2019-03-04T07:54:50.952Z,97103.09
2019-03-04T07:57:21.371Z,97111.98
2019-03-04T07:59:51.837Z,97114.31
2019-03-04T08:02:22.256Z,97111.50
2019-03-04T08:04:52.740Z,97084.67
2019-03-04T08:07:44.431Z,97096.98
2019-03-04T08:10:56.674Z,97092.45
2019-03-04T08:13:37.119Z,97072.03
2019-03-04T08:16:08.398Z,97068.17
2019-03-04T08:18:38.826Z,97065.03
2019-03-04T08:21:09.448Z,97053.69
2019-03-04T08:23:40.291Z,97057.97
2019-03-04T08:26:10.721Z,97053.00
2019-03-04T08:28:41.249Z,97054.57
2019-03-04T08:31:12.091Z,97066.30
2019-03-04T08:33:42.928Z,97064.33
2019-03-04T08:36:13.774Z,97075.60
2019-03-04T08:38:44.504Z,97095.89
2019-03-04T08:41:15.021Z,97132.61
2019-03-04T08:43:45.455Z,97186.86
2019-03-04T08:46:15.879Z,97221.63
2019-03-04T08:48:46.424Z,97227.88
2019-03-04T08:51:17.151Z,97247.28
2019-03-04T08:53:47.631Z,97263.38
2019-03-04T08:56:18.356Z,97242.63
2019-03-04T08:58:48.777Z,97290.28
2019-03-04T09:01:19.240Z,97290.64
2019-03-04T09:03:49.665Z,97289.23
2019-03-04T09:06:20.088Z,97268.78
2019-03-04T09:08:50.539Z,97278.27
2019-03-04T09:11:21.018Z,97288.39
2019-03-04T09:13:51.503Z,97263.52
2019-03-04T09:16:22.198Z,97247.09
2019-03-04T09:18:52.624Z,97216.02
2019-03-04T09:21:23.246Z,97191.80
2019-03-04T09:23:53.732Z,97215.31
2019-03-04T09:26:24.156Z,97220.41
2019-03-04T09:28:54.625Z,97230.81
2019-03-04T09:31:25.366Z,97244.51
2019-03-04T09:33:56.146Z,97246.03
2019-03-04T09:36:26.601Z,97241.92
2019-03-04T09:38:57.016Z,97236.89
2019-03-04T09:41:27.487Z,97221.86
2019-03-04T09:43:58.176Z,97220.15
2019-03-04T09:46:28.667Z,97198.36
2019-03-04T09:48:59.118Z,97208.05
2019-03-04T09:51:29.590Z,97221.84
2019-03-04T09:54:00.011Z,97204.77
2019-03-04T09:56:30.793Z,97198.16
2019-03-04T09:59:01.231Z,97193.88
2019-03-04T10:01:40.212Z,97197.43
2019-03-04T10:05:19.547Z,97172.75
2019-03-04T10:08:16.218Z,97212.25
2019-03-04T10:11:40.739Z,97188.35
2019-03-04T10:14:44.979Z,97185.49
2019-03-04T10:17:40.211Z,97170.84
2019-03-04T10:21:04.803Z,97192.80
2019-03-04T10:24:08.841Z,97194.77
2019-03-04T10:27:18.928Z,97194.98
2019-03-04T10:30:35.768Z,97197.28
2019-03-04T10:33:32.752Z,97203.34
2019-03-04T10:36:17.656Z,97206.30
2019-03-04T10:39:38.097Z,97216.63
2019-03-04T10:42:45.910Z,97205.90
2019-03-04T10:45:57.853Z,97205.80
2019-03-04T10:48:28.276Z,97197.14
2019-03-04T10:50:59.828Z,97190.77
2019-03-04T10:53:30.347Z,97188.46
2019-03-04T10:56:00.781Z,97182.23
2019-03-04T10:58:31.566Z,97202.41
2019-03-04T11:01:02.051Z,97208.52
2019-03-04T11:03:32.463Z,97190.86
2019-03-04T11:06:03.278Z,97207.47
2019-03-04T11:08:33.758Z,97206.77
2019-03-04T11:11:04.192Z,97184.48
2019-03-04T11:13:34.618Z,97189.30
2019-03-04T11:16:05.072Z,97194.19
2019-03-04T11:18:36.472Z,97190.72
2019-03-04T11:21:07.107Z,97174.97
2019-03-04T11:23:37.638Z,97163.72
2019-03-04T11:26:08.127Z,97167.04
2019-03-04T11:28:38.553Z,97154.75
2019-03-04T11:31:09.468Z,97136.77
2019-03-04T11:33:39.950Z,97146.78
2019-03-04T11:36:10.735Z,97154.70
2019-03-04T11:38:49.489Z,97155.03
2019-03-04T11:41:21.844Z,97173.92
2019-03-04T11:43:52.385Z,97155.13
2019-03-04T11:46:24.485Z,97163.39
2019-03-04T11:48:55.805Z,97153.67
2019-03-04T11:51:26.658Z,97151.53
2019-03-04T11:53:57.740Z,97145.47
2019-03-04T11:56:28.541Z,97129.36
2019-03-04T11:58:59.012Z,97146.45
2019-03-04T12:01:40.541Z,97140.55
2019-03-04T12:04:11.047Z,97146.31
2019-03-04T12:06:43.178Z,97138.50
2019-03-04T12:09:17.317Z,97137.75
2019-03-04T12:11:47.744Z,97153.14
2019-03-04T12:14:18.223Z,97141.63
2019-03-04T12:16:48.654Z,97140.86
2019-03-04T12:19:19.087Z,97145.17
2019-03-04T12:21:49.809Z,97150.61
2019-03-04T12:24:20.434Z,97153.95
2019-03-04T12:26:51.234Z,97150.04
2019-03-04T12:29:21.663Z,97138.09
2019-03-04T12:32:01.093Z,97118.13
2019-03-04T12:34:31.517Z,97117.98
2019-03-04T12:37:01.945Z,97101.92
2019-03-04T12:39:32.971Z,97113.86
2019-03-04T12:42:03.446Z,97112.76
2019-03-04T12:44:34.195Z,97083.27
2019-03-04T12:47:04.623Z,97071.03
2019-03-04T12:49:35.081Z,97089.09
2019-03-04T12:52:05.520Z,97075.14
2019-03-04T12:54:36.024Z,97090.03
2019-03-04T12:57:06.454Z,97057.59
2019-03-04T12:59:36.928Z,97062.73
2019-03-04T13:02:07.723Z,97068.67
2019-03-04T13:04:38.551Z,97068.91
2019-03-04T13:07:09.009Z,97082.05
2019-03-04T13:09:39.436Z,97075.88
2019-03-04T13:12:09.912Z,97074.91
2019-03-04T13:14:40.346Z,97075.61
2019-03-04T13:17:10.776Z,97068.36
2019-03-04T13:19:41.229Z,97067.84
2019-03-04T13:22:11.676Z,97085.80
2019-03-04T13:24:42.839Z,97089.17
2019-03-04T13:27:23.362Z,97128.15
2019-03-04T13:29:45.751Z,97128.78
2019-03-04T13:32:16.174Z,97137.95
2019-03-04T13:34:46.983Z,97170.91
2019-03-04T13:37:17.454Z,97191.98
2019-03-04T13:39:47.880Z,97210.05
2019-03-04T13:42:18.308Z,97206.09
2019-03-04T13:44:48.788Z,97247.97
2019-03-04T13:47:19.214Z,97252.53
2019-03-04T13:49:49.638Z,97251.25
2019-03-04T13:52:20.504Z,97229.78
2019-03-04T13:54:51.240Z,97233.58
2019-03-04T13:57:21.675Z,97212.53
2019-03-04T13:59:52.512Z,97211.19
2019-03-04T14:02:22.988Z,97231.84
2019-03-04T14:04:53.410Z,97240.98
2019-03-04T14:07:23.834Z,97247.12
2019-03-04T14:09:54.290Z,97270.34
2019-03-04T14:12:24.726Z,97286.27
2019-03-04T14:14:55.359Z,97293.70
2019-03-04T14:17:25.788Z,97313.55
2019-03-04T14:19:56.563Z,97311.05
2019-03-04T14:22:26.982Z,97333.58
2019-03-04T14:24:57.412Z,97342.14
2019-03-04T14:27:27.899Z,97346.34
2019-03-04T14:29:58.998Z,97355.36
2019-03-04T14:32:29.464Z,97352.01
2019-03-04T14:34:59.882Z,97361.54
2019-03-04T14:37:30.309Z,97365.40
2019-03-04T14:40:01.127Z,97373.80
2019-03-04T14:42:31.601Z,97388.12
2019-03-04T14:45:02.298Z,97382.80
2019-03-04T14:47:32.776Z,97389.55
2019-03-04T14:50:09.941Z,97401.23
2019-03-04T14:52:36.278Z,97412.47
2019-03-04T14:55:09.501Z,97427.53
2019-03-04T14:57:39.934Z,97431.30
2019-03-04T15:00:18.463Z,97415.03
2019-03-04T15:02:50.187Z,97417.17
2019-03-04T15:05:20.888Z,97432.21
2019-03-04T15:07:51.715Z,97431.59
2019-03-04T15:10:22.140Z,97446.47
2019-03-04T15:12:52.559Z,97441.67
2019-03-04T15:15:23.069Z,97454.77
2019-03-04T15:17:53.827Z,97462.75
2019-03-04T15:20:24.954Z,97466.22
2019-03-04T15:22:55.443Z,97470.91
2019-03-04T15:25:28.776Z,97473.78
2019-03-04T15:28:14.528Z,97469.89
2019-03-04T15:30:45.727Z,97485.95
2019-03-04T15:33:18.447Z,97488.19
2019-03-04T15:35:48.721Z,97479.89
2019-03-04T15:38:19.188Z,97492.59
2019-03-04T15:40:50.332Z,97490.72
2019-03-04T15:43:20.823Z,97488.36
2019-03-04T15:45:52.578Z,97499.43
2019-03-04T15:48:24.660Z,97495.14
2019-03-04T15:50:55.865Z,97512.42
2019-03-04T15:53:26.331Z,97511.81
2019-03-04T15:55:56.793Z,97523.56
2019-03-04T15:58:27.222Z,97519.89
2019-03-04T16:00:57.679Z,97532.37
2019-03-04T16:03:28.105Z,97523.89
2019-03-04T16:05:58.551Z,97531.48
2019-03-04T16:08:29.352Z,97528.40
2019-03-04T16:11:00.191Z,97525.94
2019-03-04T16:13:30.606Z,97538.91
2019-03-04T16:16:01.059Z,97548.43
2019-03-04T16:18:31.812Z,97556.55
2019-03-04T16:21:03.185Z,97555.93
2019-03-04T16:23:33.578Z,97557.03
2019-03-04T16:26:08.574Z,97576.25
2019-03-04T16:28:39.049Z,97567.66
2019-03-04T16:31:09.620Z,97580.78
2019-03-04T16:33:40.133Z,97565.12
2019-03-04T16:36:10.584Z,97585.55
2019-03-04T16:38:41.051Z,97582.41
2019-03-04T16:41:11.819Z,97594.25
2019-03-04T16:43:42.636Z,97595.06
2019-03-04T16:46:13.124Z,97601.19
2019-03-04T16:48:43.543Z,97598.55
2019-03-04T16:51:14.168Z,97604.70
2019-03-04T16:53:45.276Z,97611.58
2019-03-04T16:56:15.715Z,97622.13
2019-03-04T16:58:46.183Z,97610.38
2019-03-04T17:01:16.732Z,97628.58
2019-03-04T17:03:47.514Z,97636.36
2019-03-04T17:06:17.970Z,97643.84
2019-03-04T17:08:48.471Z,97644.53
2019-03-04T17:11:19.207Z,97651.30
2019-03-04T17:13:50.050Z,97658.67
2019-03-04T17:16:20.883Z,97657.74
2019-03-04T17:18:51.615Z,97677.61
2019-03-04T17:21:22.096Z,97673.30
2019-03-04T17:23:52.523Z,97679.73
2019-03-04T17:26:23.055Z,97667.81
2019-03-04T17:28:53.851Z,97686.91
2019-03-04T17:31:24.316Z,97679.95
2019-03-04T17:33:54.740Z,97679.95
2019-03-04T17:36:25.553Z,97691.91
2019-03-04T17:38:55.977Z,97703.27
2019-03-04T17:41:26.418Z,97693.03
2019-03-04T17:43:57.247Z,97687.47
2019-03-04T17:46:27.774Z,97707.77
2019-03-04T17:48:59.643Z,97716.79
2019-03-04T17:51:30.109Z,97716.66
2019-03-04T17:54:00.920Z,97722.47
2019-03-04T17:56:31.408Z,97726.41
2019-03-04T17:59:02.182Z,97730.00
2019-03-04T18:01:32.921Z,97737.16
2019-03-04T18:04:03.691Z,97743.83
2019-03-04T18:06:35.469Z,97737.06
2019-03-04T18:09:07.875Z,97761.37
2019-03-04T18:11:38.765Z,97757.42
2019-03-04T18:14:09.701Z,97772.30
2019-03-04T18:16:40.295Z,97776.02
2019-03-04T18:19:10.793Z,97771.91
2019-03-04T18:21:41.216Z,97781.79
2019-03-04T18:24:11.660Z,97786.27
2019-03-04T18:26:46.602Z,97803.85
2019-03-04T18:29:38.088Z,97804.92
2019-03-04T18:32:47.967Z,97816.25
2019-03-04T18:35:56.795Z,97827.88
2019-03-04T18:39:13.500Z,97826.03
2019-03-04T18:42:26.463Z,97832.55
2019-03-04T18:45:44.269Z,97834.94
2019-03-04T18:48:50.924Z,97847.59
2019-03-04T18:51:21.440Z,97855.75
2019-03-04T18:53:53.814Z,97858.75
2019-03-04T18:56:24.256Z,97866.23
2019-03-04T18:58:54.754Z,97871.95
2019-03-04T19:01:25.531Z,97881.89
2019-03-04T19:03:55.977Z,97892.84
2019-03-04T19:06:37.066Z,97888.34
2019-03-04T19:09:09.773Z,97898.50
2019-03-04T19:11:40.967Z,97908.40
2019-03-04T19:14:14.820Z,97901.08
2019-03-04T19:16:45.592Z,97901.48
2019-03-04T19:19:17.010Z,97918.37
2019-03-04T19:21:47.561Z,97916.14
2019-03-04T19:24:18.947Z,97923.45
2019-03-04T19:26:50.191Z,97919.84
2019-03-04T19:29:20.707Z,97910.31
2019-03-04T19:31:54.479Z,97912.83
2019-03-04T19:34:25.711Z,97925.97
2019-03-04T19:36:58.668Z,97925.83
2019-03-04T19:39:29.528Z,97920.84
2019-03-04T19:41:59.966Z,97924.27
2019-03-04T19:44:32.250Z,97925.44
2019-03-04T19:47:02.748Z,97931.46
2019-03-04T19:49:33.508Z,97926.67
2019-03-04T19:52:06.527Z,97942.75
2019-03-04T19:54:37.817Z,97938.14
2019-03-04T19:57:08.686Z,97942.94
2019-03-04T19:59:40.047Z,97949.90
2019-03-04T20:02:11.235Z,97957.67
2019-03-04T20:04:42.082Z,97960.52
2019-03-04T20:07:12.584Z,97973.64
2019-03-04T20:09:43.770Z,97971.50
2019-03-04T20:12:14.202Z,97979.95
2019-03-04T20:14:46.094Z,97982.94
2019-03-04T20:17:17.748Z,97979.77
2019-03-04T20:19:50.439Z,97973.45
2019-03-04T20:22:21.981Z,97972.27
2019-03-04T20:24:53.043Z,97980.70
2019-03-04T20:27:23.530Z,97987.12
2019-03-04T20:29:53.961Z,97976.55
2019-03-04T20:32:25.507Z,97977.16
2019-03-04T20:34:56.193Z,97973.22
2019-03-04T20:37:27.695Z,97989.00
2019-03-04T20:39:59.625Z,97994.98
2019-03-04T20:42:31.751Z,97996.45
2019-03-04T20:45:02.883Z,97982.36
2019-03-04T20:47:33.592Z,98000.25
2019-03-04T20:50:07.015Z,98005.08
2019-03-04T20:52:41.439Z,97998.59
2019-03-04T20:55:12.079Z,98007.58
2019-03-04T20:57:42.611Z,98018.28
2019-03-04T21:00:17.598Z,98013.59
2019-03-04T21:02:48.427Z,98015.59
2019-03-04T21:05:19.050Z,98014.27
2019-03-04T21:07:50.548Z,98007.62
2019-03-04T21:10:21.506Z,98014.55
2019-03-04T21:12:54.572Z,98035.20
2019-03-04T21:15:26.264Z,98031.11
2019-03-04T21:17:56.902Z,98041.06
2019-03-04T21:20:27.527Z,98033.25
2019-03-04T21:22:58.016Z,98042.87
2019-03-04T21:25:40.659Z,98044.02
2019-03-04T21:28:18.277Z,98048.80
2019-03-04T21:31:38.259Z,98051.28
2019-03-04T21:34:35.528Z,98060.56
2019-03-04T21:37:27.538Z,98066.35
2019-03-04T21:39:59.868Z,98071.29
2019-03-04T21:42:52.756Z,98082.69
2019-03-04T21:46:13.343Z,98080.66
2019-03-04T21:48:50.683Z,98085.97
2019-03-04T21:52:05.626Z,98072.03
2019-03-04T21:54:36.846Z,98068.23
2019-03-04T21:57:40.550Z,98078.77
2019-03-04T22:00:16.149Z,98089.39
2019-03-04T22:02:54.371Z,98093.52
2019-03-04T22:05:25.334Z,98106.02
2019-03-04T22:07:56.522Z,98104.88
2019-03-04T22:10:26.945Z,98105.80
2019-03-04T22:12:57.541Z,98098.53
2019-03-04T22:15:28.457Z,98103.98
2019-03-04T22:17:59.428Z,98110.93
2019-03-04T22:20:29.870Z,98116.72
2019-03-04T22:23:00.287Z,98100.37
2019-03-04T22:25:31.022Z,98110.14
2019-03-04T22:28:01.463Z,98101.70
2019-03-04T22:30:31.911Z,98116.02
2019-03-04T22:33:02.341Z,98109.86
2019-03-04T22:35:32.852Z,98114.88
2019-03-04T22:38:03.312Z,98115.39
2019-03-04T22:40:33.739Z,98098.31
2019-03-04T22:43:04.658Z,98108.27
2019-03-04T22:45:35.089Z,98099.02
2019-03-04T22:48:05.596Z,98119.55
2019-03-04T22:50:36.308Z,98102.77
2019-03-04T22:53:06.736Z,98105.83
2019-03-04T22:55:38.029Z,98092.48
2019-03-04T22:58:08.460Z,98098.13
2019-03-04T23:01:37.942Z,98104.58
2019-03-04T23:04:14.778Z,98096.28
2019-03-04T23:07:05.226Z,98094.26
2019-03-04T23:09:54.594Z,98101.70
2019-03-04T23:12:33.626Z,98092.27
2019-03-04T23:15:04.706Z,98089.14
2019-03-04T23:17:35.126Z,98088.51
2019-03-04T23:20:06.555Z,98092.23
2019-03-04T23:22:37.239Z,98090.42
2019-03-04T23:25:09.526Z,98098.35
2019-03-04T23:27:40.019Z,98104.66
2019-03-04T23:30:12.906Z,98099.39
2019-03-04T23:32:43.379Z,98095.03
2019-03-04T23:35:14.000Z,98088.44
2019-03-04T23:37:44.455Z,98085.11
2019-03-04T23:40:15.873Z,98087.25
2019-03-04T23:42:46.295Z,98074.08
2019-03-04T23:45:17.042Z,98069.73
2019-03-04T23:47:47.889Z,98083.67
2019-03-04T23:50:20.145Z,98085.70
2019-03-04T23:52:50.900Z,98094.22
2019-03-04T23:55:21.835Z,98092.05
2019-03-04T23:57:52.265Z,98106.65
